Time;durP1;ratioP1;P1;durP2;ratioP2;P2;SDS_P1;SDS_P2;PMS_P1;PMS_P2;Temp;Humidity;BMP_temperature;BMP_pressure;BME280_temperature;BME280_humidity;BME280_pressure;Samples;Min_cycle;Max_cycle;Signal;HPM_P1;HPM_P2
2022/01/11 00:00:11;;;;;;;0.77;0.77;;;0.00;99.90;;;;;;5121303;27;20138;-79
2022/01/11 00:02:41;;;;;;;;;;;0.00;99.90;;;;;;5138485;27;20065;-78
2022/01/11 00:05:07;;;;;;;0.60;0.60;;;-0.10;99.90;;;;;;5156544;27;19918;-78
2022/01/11 00:07:35;;;;;;;1.48;1.38;;;0.10;99.90;;;;;;5138127;27;20042;-79
2022/01/11 00:10:01;;;;;;;1.25;1.17;;;0.10;99.90;;;;;;5138105;27;20478;-79
2022/01/11 00:12:27;;;;;;;0.70;0.70;;;0.10;99.90;;;;;;5156307;27;20082;-79
2022/01/11 00:14:52;;;;;;;0.75;0.75;;;0.20;99.90;;;;;;5137927;27;20081;-80
2022/01/11 00:17:18;;;;;;;0.90;0.90;;;0.20;99.90;;;;;;5156284;27;20035;-79
2022/01/11 00:19:45;;;;;;;0.80;0.80;;;0.20;99.90;;;;;;5138006;27;20046;-79
2022/01/11 00:22:18;;;;;;;0.70;0.70;;;0.20;99.90;;;;;;5120826;27;20050;-79
2022/01/11 00:24:43;;;;;;;0.60;0.60;;;0.20;99.90;;;;;;5137342;27;20046;-79
2022/01/11 00:27:10;;;;;;;1.00;1.00;;;0.20;99.90;;;;;;5137504;27;20043;-79
2022/01/11 00:29:44;;;;;;;1.00;1.00;;;0.00;99.90;;;;;;5156275;27;20390;-78
2022/01/11 00:32:15;;;;;;;0.80;0.80;;;0.10;99.90;;;;;;5137608;27;20050;-79
2022/01/11 00:34:49;;;;;;;4.50;4.20;;;0.10;99.90;;;;;;5155967;27;20049;-79
2022/01/11 00:37:18;;;;;;;0.80;0.80;;;0.00;99.90;;;;;;5137299;27;20070;-78
2022/01/11 00:39:45;;;;;;;0.93;0.93;;;0.00;99.90;;;;;;5155763;27;20038;-79
2022/01/11 00:42:13;;;;;;;1.00;1.00;;;0.00;99.90;;;;;;5137458;27;20034;-79
2022/01/11 00:44:38;;;;;;;0.95;0.80;;;0.00;99.90;;;;;;5137914;27;20398;-79
2022/01/11 00:47:04;;;;;;;0.70;0.70;;;0.00;99.90;;;;;;5155392;27;20061;-79
2022/01/11 00:49:32;;;;;;;0.85;0.85;;;0.00;99.90;;;;;;5119876;27;20095;-79
2022/01/11 00:51:57;;;;;;;0.70;0.70;;;0.00;99.90;;;;;;5155413;27;20486;-78
2022/01/11 00:54:23;;;;;;;0.70;0.70;;;-0.10;99.90;;;;;;5155989;27;20046;-79
2022/01/11 00:56:49;;;;;;;0.70;0.70;;;-0.10;99.90;;;;;;5155763;27;20042;-80
2022/01/11 00:59:14;;;;;;;0.90;0.90;;;-0.10;99.90;;;;;;5120311;27;20126;-80
2022/01/11 01:01:40;;;;;;;0.80;0.80;;;-0.10;99.90;;;;;;5155604;27;20047;-79
2022/01/11 01:04:07;;;;;;;0.73;0.73;;;-0.10;99.90;;;;;;5155502;27;20039;-79
2022/01/11 01:06:33;;;;;;;5.43;4.97;;;-0.10;99.90;;;;;;5155963;27;20117;-79
2022/01/11 01:08:59;;;;;;;0.90;0.90;;;-0.10;99.90;;;;;;5155434;27;20130;-79
2022/01/11 01:11:25;;;;;;;0.73;0.73;;;-0.10;99.90;;;;;;5155509;27;20042;-78
2022/01/11 01:13:50;;;;;;;1.10;1.10;;;0.00;99.90;;;;;;5137241;27;20505;-78
2022/01/11 01:16:16;;;;;;;0.90;0.90;;;0.10;99.90;;;;;;5137039;27;20062;-79
2022/01/11 01:18:41;;;;;;;0.70;0.70;;;0.00;99.90;;;;;;5137214;27;20057;-79
2022/01/11 01:21:07;;;;;;;0.82;0.82;;;0.00;99.90;;;;;;5136934;27;20042;-78
2022/01/11 01:23:34;;;;;;;0.73;0.73;;;-0.10;99.90;;;;;;5137112;27;20038;-78
2022/01/11 01:26:00;;;;;;;0.70;0.70;;;-0.10;99.90;;;;;;5137044;27;20095;-79
2022/01/11 01:28:26;;;;;;;1.30;1.20;;;-0.10;99.90;;;;;;5136925;27;20070;-79
2022/01/11 01:30:52;;;;;;;0.88;0.88;;;-0.10;99.90;;;;;;5137587;27;20541;-79
2022/01/11 01:33:18;;;;;;;1.25;1.17;;;-0.20;99.90;;;;;;5121452;27;20118;-79
2022/01/11 01:35:50;;;;;;;7.38;6.82;;;-0.10;99.90;;;;;;5137638;27;20034;-78
2022/01/11 01:38:21;;;;;;;1.17;1.08;;;-0.20;99.90;;;;;;5141474;27;20093;-79
2022/01/11 01:40:47;;;;;;;0.70;0.70;;;-0.20;99.90;;;;;;5159649;27;20039;-78
2022/01/11 01:43:14;;;;;;;0.95;0.95;;;-0.30;99.90;;;;;;5159188;27;20043;-78
2022/01/11 01:45:46;;;;;;;0.70;0.70;;;-0.30;99.90;;;;;;5140892;27;20098;-78
2022/01/11 01:48:12;;;;;;;0.90;0.90;;;-0.30;99.90;;;;;;5140298;27;20090;-79
2022/01/11 01:50:38;;;;;;;0.70;0.70;;;-0.20;99.90;;;;;;5159108;27;20045;-79
2022/01/11 01:53:07;;;;;;;0.70;0.70;;;-0.30;99.90;;;;;;5140977;27;20042;-80
2022/01/11 01:55:33;;;;;;;1.38;1.27;;;-0.40;99.90;;;;;;5123734;27;20043;-79
2022/01/11 01:57:58;;;;;;;1.17;1.17;;;-0.50;99.90;;;;;;5159028;27;20352;-79
2022/01/11 02:00:25;;;;;;;0.73;0.73;;;-0.60;99.90;;;;;;5140420;27;20545;-79
2022/01/11 02:02:51;;;;;;;1.13;1.10;;;-0.50;99.90;;;;;;5158478;27;20509;-79
2022/01/11 02:05:17;;;;;;;0.77;0.77;;;-0.60;99.90;;;;;;5158868;27;20042;-78
2022/01/11 02:07:42;;;;;;;1.80;1.70;;;-0.60;99.90;;;;;;5123000;27;20039;-78
2022/01/11 02:10:09;;;;;;;1.00;1.00;;;-0.60;99.90;;;;;;5159018;27;20039;-78
2022/01/11 02:12:35;;;;;;;1.48;1.40;;;-0.70;99.90;;;;;;5140761;27;20049;-78
2022/01/11 02:15:02;;;;;;;1.13;1.02;;;1.20;99.90;;;;;;5140409;27;20129;-79
2022/01/11 02:17:29;;;;;;;0.70;0.70;;;-0.60;99.90;;;;;;5140266;27;20122;-79
2022/01/11 02:19:56;;;;;;;0.70;0.70;;;-0.50;99.90;;;;;;5158508;27;20039;-79
2022/01/11 02:22:25;;;;;;;0.82;0.82;;;-0.60;99.90;;;;;;5140241;27;20081;-79
2022/01/11 02:24:52;;;;;;;0.75;0.75;;;-0.70;99.90;;;;;;5158434;27;20039;-79
2022/01/11 02:27:17;;;;;;;1.13;1.13;;;-0.70;99.90;;;;;;5158315;27;20553;-78
2022/01/11 02:29:43;;;;;;;1.20;1.10;;;-0.80;99.90;;;;;;5139519;27;20121;-78
2022/01/11 02:32:10;;;;;;;1.15;0.93;;;-0.70;99.90;;;;;;5139805;27;20043;-79
2022/01/11 02:34:36;;;;;;;0.80;0.80;;;-0.80;99.90;;;;;;5158505;27;20047;-78
2022/01/11 02:37:03;;;;;;;0.70;0.70;;;-0.80;99.90;;;;;;5158093;27;20482;-78
2022/01/11 02:39:28;;;;;;;1.17;1.15;;;-0.60;99.90;;;;;;5122877;27;20039;-79
2022/01/11 02:41:56;;;;;;;0.80;0.80;;;-0.80;99.90;;;;;;5139681;27;20043;-79
2022/01/11 02:44:22;;;;;;;1.70;1.60;;;-0.80;99.90;;;;;;5157997;27;20082;-78
2022/01/11 02:46:50;;;;;;;1.70;1.60;;;-0.70;99.90;;;;;;5139357;27;20098;-77
2022/01/11 02:49:16;;;;;;;1.13;1.02;;;-0.80;99.90;;;;;;5121694;27;20523;-78
2022/01/11 02:51:42;;;;;;;0.75;0.75;;;-0.90;99.90;;;;;;5139427;27;20047;-78
2022/01/11 02:54:07;;;;;;;2.15;2.05;;;-0.90;99.90;;;;;;5158211;27;20043;-79
2022/01/11 02:56:33;;;;;;;3.03;2.83;;;-0.90;99.90;;;;;;5139480;27;20046;-79
2022/01/11 02:58:59;;;;;;;0.93;0.93;;;-0.90;99.90;;;;;;5157745;27;20074;-78
2022/01/11 03:01:25;;;;;;;0.80;0.80;;;-0.80;99.90;;;;;;5157755;27;20078;-78
2022/01/11 03:03:51;;;;;;;0.70;0.70;;;-0.90;99.90;;;;;;5139457;27;20046;-79
2022/01/11 03:06:17;;;;;;;0.90;0.90;;;-0.90;99.90;;;;;;5157664;27;20085;-79
2022/01/11 03:08:46;;;;;;;1.08;1.00;;;-0.90;99.90;;;;;;5139216;27;20122;-79
2022/01/11 03:11:14;;;;;;;1.40;1.30;;;-0.90;99.90;;;;;;5157313;27;20042;-79
2022/01/11 03:13:41;;;;;;;1.13;1.10;;;-0.90;99.90;;;;;;5121767;27;20050;-78
2022/01/11 03:16:08;;;;;;;2.38;2.28;;;-0.90;99.90;;;;;;5139215;27;20039;-77
2022/01/11 03:18:34;;;;;;;0.90;0.90;;;-0.90;99.90;;;;;;5157421;27;20038;-78
2022/01/11 03:21:00;;;;;;;0.80;0.80;;;-1.00;99.90;;;;;;5139607;27;20046;-78
2022/01/11 03:23:26;;;;;;;1.67;1.15;;;-1.00;99.90;;;;;;5157302;27;20050;-78
2022/01/11 03:25:52;;;;;;;1.13;1.02;;;-1.00;99.90;;;;;;5157305;27;20470;-79
2022/01/11 03:28:23;;;;;;;1.30;1.00;;;-1.00;99.90;;;;;;5139039;27;20043;-78
2022/01/11 03:30:51;;;;;;;0.90;0.90;;;-1.00;99.90;;;;;;5138769;27;20073;-77
2022/01/11 03:33:16;;;;;;;2.63;2.42;;;-1.00;99.90;;;;;;5138901;27;20034;-78
2022/01/11 03:35:43;;;;;;;0.98;0.88;;;-1.10;99.90;;;;;;5138844;27;20090;-77
2022/01/11 03:38:11;;;;;;;0.70;0.70;;;-1.10;99.90;;;;;;5156996;27;20066;-79
2022/01/11 03:40:38;;;;;;;0.80;0.80;;;-1.00;99.90;;;;;;5121648;27;20121;-78
2022/01/11 03:43:04;;;;;;;0.93;0.93;;;-1.00;99.90;;;;;;5157141;27;20043;-78
2022/01/11 03:45:30;;;;;;;2.67;0.93;;;-1.10;99.90;;;;;;5138661;27;20136;-79
2022/01/11 03:47:58;;;;;;;1.55;1.50;;;-1.10;99.90;;;;;;5121811;27;20383;-78
2022/01/11 03:50:25;;;;;;;1.08;1.00;;;;;;;;;;5156758;27;20042;-78
2022/01/11 03:53:09;;;;;;;3.92;3.63;;;-1.10;99.90;;;;;;5138301;27;20047;-79
2022/01/11 03:55:58;;;;;;;1.75;1.65;;;-1.10;99.90;;;;;;5156671;27;20043;-79
2022/01/11 03:58:26;;;;;;;0.90;0.90;;;-1.10;99.90;;;;;;5157247;27;20050;-79
2022/01/11 04:00:53;;;;;;;0.70;0.70;;;-1.10;99.90;;;;;;5138461;27;20157;-79
2022/01/11 04:03:18;;;;;;;0.80;0.80;;;-1.10;99.90;;;;;;5138011;27;20043;-78
2022/01/11 04:05:45;;;;;;;0.80;0.80;;;-1.10;99.90;;;;;;5138103;27;20509;-79
2022/01/11 04:08:11;;;;;;;0.80;0.80;;;-1.10;99.90;;;;;;5156291;27;20074;-79
2022/01/11 04:10:37;;;;;;;3.00;1.85;;;-1.10;99.90;;;;;;5156373;27;20053;-80
2022/01/11 04:13:03;;;;;;;0.70;0.70;;;-0.90;99.90;;;;;;5156348;27;20042;-79
2022/01/11 04:15:29;;;;;;;0.80;0.80;;;-0.90;99.90;;;;;;5156437;27;20042;-79
2022/01/11 04:17:54;;;;;;;1.05;0.90;;;-1.00;99.90;;;;;;5137934;27;20121;-80
2022/01/11 04:20:22;;;;;;;0.80;0.80;;;-0.90;99.90;;;;;;5156262;27;20100;-79
2022/01/11 04:22:48;;;;;;;1.20;1.15;;;-0.90;99.90;;;;;;5120708;27;20500;-80
2022/01/11 04:25:15;;;;;;;0.70;0.70;;;-0.90;99.90;;;;;;5137366;27;20517;-78
2022/01/11 04:27:40;;;;;;;2.92;2.60;;;-0.80;99.90;;;;;;5137588;27;20098;-80
2022/01/11 04:30:06;;;;;;;0.70;0.70;;;-0.70;99.90;;;;;;5156100;27;20038;-79
2022/01/11 04:32:32;;;;;;;0.93;0.93;;;-0.80;99.90;;;;;;5156024;27;20121;-78
2022/01/11 04:34:58;;;;;;;0.80;0.80;;;-0.10;99.90;;;;;;5137870;27;20447;-79
2022/01/11 04:37:23;;;;;;;0.90;0.90;;;-0.60;99.90;;;;;;5155850;27;20501;-80
2022/01/11 04:39:49;;;;;;;1.10;1.10;;;-0.80;99.90;;;;;;5137191;27;20077;-79
2022/01/11 04:42:15;;;;;;;1.35;1.25;;;-0.80;99.90;;;;;;5137615;27;20066;-80
2022/01/11 04:44:41;;;;;;;0.70;0.70;;;-0.80;99.90;;;;;;5155778;27;20035;-80
2022/01/11 04:47:06;;;;;;;0.97;0.97;;;-0.80;99.90;;;;;;5119963;27;20142;-79
2022/01/11 04:49:32;;;;;;;0.80;0.80;;;-0.80;99.90;;;;;;5137525;27;20042;-80
2022/01/11 04:51:58;;;;;;;0.85;0.85;;;0.40;99.90;;;;;;5137550;27;20085;-78
2022/01/11 04:54:24;;;;;;;2.97;2.77;;;-0.80;99.90;;;;;;5156214;27;20043;-80
2022/01/11 04:56:50;;;;;;;3.05;2.47;;;-0.80;99.90;;;;;;5155683;27;20050;-79
2022/01/11 04:59:15;;;;;;;0.80;0.80;;;-0.80;99.90;;;;;;5155630;27;20066;-79
2022/01/11 05:01:41;;;;;;;0.80;0.80;;;-0.80;99.90;;;;;;5155652;27;20095;-80
2022/01/11 05:04:07;;;;;;;2.05;1.95;;;-0.70;99.90;;;;;;5137130;27;20098;-79
2022/01/11 05:06:33;;;;;;;0.87;0.87;;;-0.70;99.90;;;;;;5136998;27;20051;-79
2022/01/11 05:08:58;;;;;;;0.73;0.73;;;-0.70;99.90;;;;;;5155083;27;20135;-80
2022/01/11 05:11:25;;;;;;;4.63;4.32;;;-0.70;99.90;;;;;;5136745;27;20049;-78
2022/01/11 05:13:50;;;;;;;0.80;0.80;;;-0.70;99.90;;;;;;5120405;27;20046;-78
2022/01/11 05:16:16;;;;;;;1.20;1.10;;;-0.70;99.90;;;;;;5155303;27;20042;-78
2022/01/11 05:18:41;;;;;;;1.83;1.73;;;-0.70;99.90;;;;;;5137333;27;20042;-78
2022/01/11 05:21:07;;;;;;;1.03;1.00;;;-0.70;99.90;;;;;;5155519;27;20042;-78
2022/01/11 05:23:34;;;;;;;0.70;0.70;;;-0.70;99.90;;;;;;5136837;27;20061;-78
2022/01/11 05:26:00;;;;;;;1.00;1.00;;;-0.60;99.90;;;;;;5137061;27;20054;-78
2022/01/11 05:28:26;;;;;;;2.37;2.17;;;-0.70;99.90;;;;;;5136982;27;20042;-79
2022/01/11 05:30:51;;;;;;;1.02;0.90;;;-0.70;99.90;;;;;;5137012;27;20417;-78
2022/01/11 05:33:17;;;;;;;2.28;1.15;;;-0.70;99.90;;;;;;5155286;27;20084;-77
2022/01/11 05:35:42;;;;;;;2.15;2.05;;;-0.70;99.90;;;;;;5137181;27;20129;-78
2022/01/11 05:38:08;;;;;;;0.80;0.80;;;-0.70;99.90;;;;;;5136865;27;20038;-78
2022/01/11 05:40:34;;;;;;;0.80;0.80;;;-0.70;99.90;;;;;;5155198;27;20046;-78
2022/01/11 05:42:59;;;;;;;0.80;0.80;;;-0.70;99.90;;;;;;5137441;27;20085;-78
2022/01/11 05:45:25;;;;;;;6.27;4.57;;;-0.70;99.90;;;;;;5136494;27;20039;-79
2022/01/11 05:47:54;;;;;;;1.45;1.35;;;-0.70;99.90;;;;;;5155098;27;20058;-78
2022/01/11 05:50:21;;;;;;;0.80;0.80;;;-0.70;99.90;;;;;;5136775;27;20099;-78
2022/01/11 05:52:48;;;;;;;0.88;0.88;;;-0.60;99.90;;;;;;5155027;27;20042;-78
2022/01/11 05:55:15;;;;;;;1.23;1.13;;;-0.50;99.90;;;;;;5136799;27;20398;-79
2022/01/11 05:57:41;;;;;;;1.10;1.00;;;-0.70;99.90;;;;;;5154997;27;20440;-79
2022/01/11 06:00:11;;;;;;;0.90;0.90;;;-0.60;99.90;;;;;;5154827;27;20487;-79
2022/01/11 06:02:36;;;;;;;0.90;0.90;;;-0.60;99.90;;;;;;5136843;27;20054;-79
2022/01/11 06:05:03;;;;;;;1.20;1.15;;;-0.60;99.90;;;;;;5136705;27;20390;-79
2022/01/11 06:07:28;;;;;;;0.80;0.80;;;-0.60;99.90;;;;;;5154826;27;20039;-79
2022/01/11 06:09:54;;;;;;;2.40;2.30;;;-0.50;99.90;;;;;;5136949;27;20034;-79
2022/01/11 06:12:19;;;;;;;18.80;10.68;;;-0.60;99.90;;;;;;5119650;27;20497;-78
2022/01/11 06:14:45;;;;;;;5.03;4.53;;;-0.60;99.90;;;;;;5155088;27;20470;-79
2022/01/11 06:17:10;;;;;;;1.35;1.25;;;-0.60;99.90;;;;;;5119724;27;20043;-79
2022/01/11 06:19:36;;;;;;;0.80;0.80;;;-0.60;99.90;;;;;;5136418;27;20030;-78
2022/01/11 06:22:02;;;;;;;3.07;2.87;;;-0.10;99.90;;;;;;5119075;27;20042;-80
2022/01/11 06:24:27;;;;;;;3.33;3.03;;;-0.60;99.90;;;;;;5138888;27;20466;-80
2022/01/11 06:26:53;;;;;;;3.03;2.83;;;-0.60;99.90;;;;;;5140673;27;20134;-79
2022/01/11 06:29:19;;;;;;;6.65;6.20;;;-0.60;99.90;;;;;;5158314;27;20039;-79
2022/01/11 06:31:44;;;;;;;3.80;3.60;;;-0.70;99.90;;;;;;5158397;27;20042;-80
2022/01/11 06:34:10;;;;;;;1.80;1.70;;;-0.70;99.90;;;;;;5140154;27;20043;-81
2022/01/11 06:36:36;;;;;;;0.80;0.80;;;-0.70;99.90;;;;;;5158270;27;20459;-78
2022/01/11 06:39:03;;;;;;;0.80;0.80;;;-0.80;99.90;;;;;;5158721;27;20125;-78
2022/01/11 06:41:29;;;;;;;;;;;-0.70;99.90;;;;;;5139938;27;20134;-77
2022/01/11 06:43:54;;;;;;;0.70;0.70;;;-0.70;99.90;;;;;;5158148;27;20005;-76
2022/01/11 06:46:23;;;;;;;0.80;0.80;;;-0.70;99.90;;;;;;5158005;27;20076;-78
2022/01/11 06:48:52;;;;;;;0.70;0.70;;;-0.60;99.90;;;;;;5139574;27;20439;-77
2022/01/11 06:51:19;;;;;;;2.38;2.25;;;-0.80;99.90;;;;;;5157935;27;20129;-77
2022/01/11 06:53:45;;;;;;;1.45;1.35;;;-0.80;99.90;;;;;;5157944;27;20046;-78
2022/01/11 06:56:10;;;;;;;0.70;0.70;;;-0.80;99.90;;;;;;5139551;27;20042;-77
2022/01/11 06:58:38;;;;;;;1.00;1.00;;;-0.80;99.90;;;;;;5139425;27;20046;-77
2022/01/11 07:01:04;;;;;;;2.30;2.20;;;-0.80;99.90;;;;;;5122644;27;20126;-77
2022/01/11 07:03:29;;;;;;;1.00;0.90;;;-0.80;99.90;;;;;;5139582;27;20402;-78
2022/01/11 07:05:55;;;;;;;0.80;0.80;;;-0.80;99.90;;;;;;5157380;27;20043;-77
2022/01/11 07:08:21;;;;;;;0.80;0.80;;;-1.30;99.90;;;;;;5139394;27;20034;-77
2022/01/11 07:10:47;;;;;;;0.70;0.70;;;-0.80;99.90;;;;;;5157956;27;20049;-78
2022/01/11 07:13:12;;;;;;;0.73;0.73;;;-0.80;99.90;;;;;;5139387;27;20046;-77
2022/01/11 07:15:38;;;;;;;0.80;0.80;;;-0.80;99.90;;;;;;5139148;27;20177;-78
2022/01/11 07:18:08;;;;;;;0.80;0.80;;;-0.90;99.90;;;;;;5157586;27;20039;-77
2022/01/11 07:20:34;;;;;;;1.50;1.40;;;-0.90;99.90;;;;;;5157781;27;20070;-77
2022/01/11 07:23:00;;;;;;;0.80;0.80;;;-0.80;99.90;;;;;;5139158;27;20471;-77
2022/01/11 07:25:26;;;;;;;3.67;2.78;;;-0.90;99.90;;;;;;5157341;27;20043;-77
2022/01/11 07:27:52;;;;;;;9.75;4.22;;;-0.60;99.90;;;;;;5139041;27;20049;-77
2022/01/11 07:30:17;;;;;;;0.80;0.80;;;-0.80;99.90;;;;;;5157217;27;20125;-77
2022/01/11 07:32:43;;;;;;;1.50;0.97;;;-0.80;99.90;;;;;;5121726;27;20047;-77
2022/01/11 07:35:09;;;;;;;1.35;1.25;;;-0.80;99.90;;;;;;5138483;27;20039;-77
2022/01/11 07:37:34;;;;;;;1.15;1.05;;;-0.80;99.90;;;;;;5157014;27;20121;-77
2022/01/11 07:40:00;;;;;;;0.80;0.80;;;-0.90;99.90;;;;;;5138655;27;20485;-78
2022/01/11 07:42:26;;;;;;;0.80;0.80;;;-0.80;99.90;;;;;;5157044;27;20099;-77
2022/01/11 07:44:53;;;;;;;0.90;0.90;;;-0.80;99.90;;;;;;5121591;27;20055;-77
2022/01/11 07:47:19;;;;;;;;;;;-0.80;99.90;;;;;;5138794;27;20066;-83
2022/01/11 07:49:44;;;;;;;1.15;1.10;;;-0.70;99.90;;;;;;5138306;27;19923;-78
2022/01/11 07:52:10;;;;;;;2.00;1.90;;;-0.80;99.90;;;;;;5138378;27;20067;-78
2022/01/11 07:54:35;;;;;;;0.90;0.90;;;-0.80;99.90;;;;;;5138490;27;20379;-78
2022/01/11 07:57:01;;;;;;;0.80;0.80;;;-0.80;99.90;;;;;;5138495;27;20050;-80
2022/01/11 07:59:27;;;;;;;0.80;0.80;;;-0.80;99.90;;;;;;5121249;27;20492;-79
2022/01/11 08:01:53;;;;;;;0.90;0.90;;;-0.80;99.90;;;;;;5121270;27;20047;-80
2022/01/11 08:04:19;;;;;;;0.70;0.70;;;-0.70;99.90;;;;;;5138010;27;20045;-80
2022/01/11 08:06:44;;;;;;;0.80;0.80;;;0.60;99.90;;;;;;5157050;27;20054;-77
2022/01/11 08:09:10;;;;;;;1.30;0.90;;;-0.50;99.90;;;;;;5155647;27;20035;-77
2022/01/11 08:11:36;;;;;;;1.00;1.00;;;0.20;99.90;;;;;;5156198;27;20355;-79
2022/01/11 08:14:01;;;;;;;3.87;3.60;;;-0.60;99.90;;;;;;5114965;28;20056;-79
2022/01/11 08:16:27;;;;;;;0.70;0.70;;;-0.40;99.90;;;;;;5080156;28;20428;-78
2022/01/11 08:18:52;;;;;;;0.80;0.80;;;-0.60;99.90;;;;;;5097071;28;20048;-78
2022/01/11 08:21:18;;;;;;;26.92;10.70;;;-0.50;99.90;;;;;;5096887;28;20051;-79
2022/01/11 08:23:43;;;;;;;0.90;0.90;;;-0.50;99.90;;;;;;5115239;28;20048;-78
2022/01/11 08:26:09;;;;;;;2.45;2.25;;;-0.30;99.90;;;;;;5114765;28;20047;-81
2022/01/11 08:28:35;;;;;;;3.47;2.83;;;-0.50;99.90;;;;;;5115011;28;20044;-80
2022/01/11 08:31:00;;;;;;;0.80;0.80;;;-0.40;99.90;;;;;;5114783;28;20478;-79
2022/01/11 08:33:26;;;;;;;4.85;3.70;;;-0.40;99.90;;;;;;5096588;28;20032;-78
2022/01/11 08:35:52;;;;;;;0.90;0.90;;;-0.40;99.90;;;;;;5096509;28;20047;-79
2022/01/11 08:38:18;;;;;;;1.43;1.33;;;0.00;99.90;;;;;;5096557;28;20039;-79
2022/01/11 08:40:43;;;;;;;1.90;1.80;;;-0.40;99.90;;;;;;5096616;28;20428;-78
2022/01/11 08:43:09;;;;;;;1.13;1.02;;;-0.30;99.90;;;;;;5132268;27;20431;-74
2022/01/11 08:45:36;;;;;;;2.20;2.10;;;-0.20;99.90;;;;;;5155200;27;20482;-74
2022/01/11 08:48:02;;;;;;;0.80;0.80;;;-1.10;99.90;;;;;;5155251;27;20058;-74
2022/01/11 08:50:28;;;;;;;1.80;1.70;;;-0.10;99.90;;;;;;5155826;27;20054;-77
2022/01/11 08:52:54;;;;;;;0.85;0.85;;;-0.10;99.90;;;;;;5137079;27;20034;-76
2022/01/11 08:55:20;;;;;;;0.70;0.70;;;-0.10;99.90;;;;;;5155748;27;20042;-77
2022/01/11 08:57:46;;;;;;;1.40;1.30;;;-0.10;99.90;;;;;;5120290;27;20051;-77
2022/01/11 09:00:17;;;;;;;0.83;0.83;;;-0.70;99.90;;;;;;5155603;27;20045;-78
2022/01/11 09:02:48;;;;;;;1.55;1.45;;;0.00;99.90;;;;;;5155543;27;20476;-76
2022/01/11 09:05:14;;;;;;;2.25;2.15;;;0.00;99.90;;;;;;5155517;27;20053;-76
2022/01/11 09:07:40;;;;;;;1.52;1.42;;;0.10;99.90;;;;;;5155471;27;20474;-77
2022/01/11 09:10:07;;;;;;;2.23;2.13;;;0.10;99.90;;;;;;5155477;27;20382;-76
2022/01/11 09:12:33;;;;;;;;;;;0.10;99.90;;;;;;5155690;27;20100;-76
2022/01/11 09:14:58;;;;;;;0.80;0.80;;;0.40;99.90;;;;;;5137201;27;19923;-79
2022/01/11 09:17:24;;;;;;;0.70;0.70;;;0.20;99.90;;;;;;5155267;27;20048;-78
2022/01/11 09:19:50;;;;;;;2.58;2.47;;;0.20;99.90;;;;;;5155033;27;20087;-80
2022/01/11 09:22:16;;;;;;;0.70;0.70;;;0.20;99.90;;;;;;5155351;27;20043;-78
2022/01/11 09:24:42;;;;;;;1.23;0.90;;;0.20;99.90;;;;;;5119191;27;20046;-78
2022/01/11 09:27:08;;;;;;;1.00;1.00;;;0.30;99.90;;;;;;5136783;27;20272;-79
2022/01/11 09:29:36;;;;;;;0.80;0.80;;;0.30;99.90;;;;;;5155216;27;20094;-80
2022/01/11 09:32:04;;;;;;;1.08;1.02;;;0.30;99.90;;;;;;5136126;27;20122;-79
2022/01/11 09:34:30;;;;;;;1.10;1.00;;;0.40;99.90;;;;;;5136456;27;20482;-79
2022/01/11 09:36:56;;;;;;;1.63;1.52;;;0.40;99.90;;;;;;5136553;27;20050;-80
2022/01/11 09:39:22;;;;;;;1.00;1.00;;;0.40;99.90;;;;;;5154515;27;20402;-79
2022/01/11 09:41:48;;;;;;;0.70;0.70;;;1.20;99.90;;;;;;5119495;27;20039;-79
2022/01/11 09:44:14;;;;;;;0.90;0.90;;;0.50;99.90;;;;;;5154733;27;20445;-80
2022/01/11 09:46:39;;;;;;;2.05;1.95;;;0.60;99.90;;;;;;5136117;27;20082;-79
2022/01/11 09:49:05;;;;;;;1.23;1.10;;;0.60;99.90;;;;;;5130695;27;20077;-78
2022/01/11 09:51:32;;;;;;;1.03;1.03;;;0.70;99.90;;;;;;5136227;27;20500;-78
2022/01/11 09:53:58;;;;;;;1.58;1.48;;;0.70;99.90;;;;;;5154543;27;20074;-79
2022/01/11 09:56:24;;;;;;;0.80;0.80;;;0.60;99.90;;;;;;5154794;27;20042;-75
2022/01/11 09:58:50;;;;;;;0.80;0.80;;;0.80;99.90;;;;;;5157808;27;20046;-80
2022/01/11 10:01:15;;;;;;;1.30;1.20;;;0.70;99.90;;;;;;5159027;27;20054;-79
2022/01/11 10:04:04;;;;;;;1.00;1.00;;;0.70;99.90;;;;;;5158804;27;20126;-79
2022/01/11 10:06:34;;;;;;;0.93;0.90;;;0.70;99.90;;;;;;5140379;27;20039;-79
2022/01/11 10:09:21;;;;;;;0.98;0.98;;;0.70;99.90;;;;;;5158819;27;20045;-79
2022/01/11 10:11:55;;;;;;;1.35;1.25;;;0.30;99.90;;;;;;5158432;27;20107;-79
2022/01/11 10:14:31;;;;;;;0.80;0.80;;;0.90;99.90;;;;;;5159171;27;20050;-80
2022/01/11 10:17:23;;;;;;;1.35;1.25;;;0.80;99.90;;;;;;5140319;27;20042;-80
2022/01/11 10:19:59;;;;;;;1.55;1.45;;;0.70;99.90;;;;;;5140516;27;20043;-78
2022/01/11 10:22:25;;;;;;;1.15;1.15;;;0.80;99.90;;;;;;5140154;27;20474;-79
2022/01/11 10:24:54;;;;;;;0.70;0.70;;;0.90;99.90;;;;;;5158575;27;20054;-79
2022/01/11 10:27:24;;;;;;;1.20;1.05;;;0.60;99.90;;;;;;5158356;27;20520;-78
2022/01/11 10:29:58;;;;;;;0.70;0.70;;;0.80;99.90;;;;;;5140039;27;20478;-78
2022/01/11 10:32:35;;;;;;;0.70;0.70;;;1.10;99.90;;;;;;5150665;27;20062;-78
2022/01/11 10:35:08;;;;;;;0.70;0.70;;;0.80;99.90;;;;;;5095983;28;20046;-78
2022/01/11 10:37:40;;;;;;;0.90;0.90;;;0.80;99.90;;;;;;5121218;27;20438;-79
2022/01/11 10:40:38;;;;;;;0.70;0.70;;;0.80;99.90;;;;;;5152880;27;20367;-79
2022/01/11 10:43:11;;;;;;;0.70;0.70;;;0.80;99.90;;;;;;5128306;27;20063;-79
2022/01/11 10:45:39;;;;;;;4.20;3.80;;;0.80;99.90;;;;;;5157992;27;20772;-79
2022/01/11 10:48:09;;;;;;;0.88;0.88;;;0.80;99.90;;;;;;5157943;27;20062;-78
2022/01/11 10:50:38;;;;;;;1.15;1.05;;;0.80;99.90;;;;;;5157960;27;20053;-79
2022/01/11 10:53:06;;;;;;;0.82;0.82;;;0.70;99.90;;;;;;5139391;27;20046;-79
2022/01/11 10:55:34;;;;;;;2.15;2.00;;;0.80;99.90;;;;;;5157815;27;20089;-79
2022/01/11 10:58:03;;;;;;;1.20;1.15;;;0.80;99.90;;;;;;5157602;27;20046;-79
2022/01/11 11:00:35;;;;;;;0.70;0.70;;;0.80;99.90;;;;;;5122324;27;20062;-79
2022/01/11 11:03:13;;;;;;;0.95;0.95;;;0.90;99.90;;;;;;5157519;27;20041;-79
2022/01/11 11:05:45;;;;;;;0.70;0.70;;;0.90;99.90;;;;;;5106301;27;20058;-79
2022/01/11 11:08:12;;;;;;;0.90;0.90;;;1.00;99.90;;;;;;5157477;27;20435;-77
2022/01/11 11:10:41;;;;;;;2.17;2.05;;;0.90;99.90;;;;;;5155945;27;20038;-78
2022/01/11 11:13:10;;;;;;;0.70;0.70;;;1.00;99.90;;;;;;5157503;27;20090;-79
2022/01/11 11:15:38;;;;;;;3.38;3.10;;;1.00;99.90;;;;;;5138993;27;20090;-79
2022/01/11 11:18:07;;;;;;;1.35;1.25;;;1.10;99.90;;;;;;5141024;27;20485;-78
2022/01/11 11:20:35;;;;;;;3.40;3.10;;;1.10;99.90;;;;;;5138657;27;20121;-79
2022/01/11 11:23:03;;;;;;;1.35;1.25;;;1.10;99.90;;;;;;5156903;27;20094;-79
2022/01/11 11:25:29;;;;;;;1.20;1.15;;;1.20;99.90;;;;;;5139018;27;20047;-79
2022/01/11 11:27:55;;;;;;;1.42;1.35;;;1.20;99.90;;;;;;5138724;27;20038;-78
2022/01/11 11:30:21;;;;;;;0.98;0.98;;;1.30;99.90;;;;;;5156790;27;20046;-78
2022/01/11 11:32:51;;;;;;;0.80;0.80;;;0.70;99.90;;;;;;5156936;27;20130;-77
2022/01/11 11:35:17;;;;;;;0.68;0.68;;;1.40;99.90;;;;;;5156881;27;20276;-78
2022/01/11 11:37:46;;;;;;;1.98;1.30;;;1.50;99.90;;;;;;5156281;27;20133;-77
2022/01/11 11:40:21;;;;;;;0.60;0.60;;;1.50;99.90;;;;;;5156293;27;20031;-78
2022/01/11 11:42:53;;;;;;;7.78;3.13;;;1.50;99.90;;;;;;5115674;27;20129;-82
2022/01/11 11:45:22;;;;;;;0.77;0.77;;;1.60;99.90;;;;;;5138576;27;20046;-79
2022/01/11 11:47:49;;;;;;;0.75;0.75;;;1.60;99.90;;;;;;5156983;27;20054;-81
2022/01/11 11:50:21;;;;;;;1.45;1.35;;;1.90;99.90;;;;;;5138598;27;20039;-78
2022/01/11 11:52:50;;;;;;;3.88;3.50;;;1.80;99.90;;;;;;5139097;27;20542;-77
2022/01/11 11:55:19;;;;;;;2.22;2.13;;;1.90;99.90;;;;;;5156878;27;20050;-80
2022/01/11 11:57:46;;;;;;;1.88;1.77;;;2.00;99.90;;;;;;5138393;27;20081;-79
2022/01/11 12:00:24;;;;;;;;;;;2.20;99.90;;;;;;5156971;27;20122;-80
2022/01/11 12:03:16;;;;;;;0.70;0.70;;;2.20;99.90;;;;;;5120969;27;19926;-77
2022/01/11 12:05:46;;;;;;;1.05;1.00;;;2.10;99.90;;;;;;5151077;27;20057;-73
2022/01/11 12:08:43;;;;;;;1.52;1.42;;;2.10;99.90;;;;;;5155923;27;20042;-78
2022/01/11 12:11:11;;;;;;;1.48;1.38;;;2.10;99.90;;;;;;5151637;27;20038;-75
2022/01/11 12:13:43;;;;;;;3.20;3.00;;;2.20;99.90;;;;;;5155743;27;20078;-78
2022/01/11 12:16:34;;;;;;;0.70;0.70;;;2.20;99.90;;;;;;5156014;27;20072;-77
2022/01/11 12:19:08;;;;;;;0.60;0.60;;;2.30;99.90;;;;;;5141358;27;20047;-77
2022/01/11 12:21:53;;;;;;;1.83;1.73;;;2.30;99.90;;;;;;5155996;27;20393;-77
2022/01/11 12:24:39;;;;;;;0.70;0.70;;;2.30;99.90;;;;;;5155965;27;20137;-81
2022/01/11 12:27:10;;;;;;;0.70;0.70;;;2.30;99.90;;;;;;5155867;27;20043;-76
2022/01/11 12:29:50;;;;;;;0.85;0.85;;;2.30;99.90;;;;;;5131908;27;20039;-78
2022/01/11 12:32:18;;;;;;;0.77;0.77;;;2.30;99.90;;;;;;5124046;27;20058;-78
2022/01/11 12:34:47;;;;;;;0.90;0.90;;;2.20;99.90;;;;;;5134713;27;20047;-78
2022/01/11 12:37:31;;;;;;;1.25;1.15;;;2.30;99.90;;;;;;5116720;27;20051;-77
2022/01/11 12:40:01;;;;;;;2.95;2.75;;;2.30;99.90;;;;;;5134724;27;20081;-78
2022/01/11 12:42:28;;;;;;;12.43;5.95;;;2.30;99.90;;;;;;5116529;27;20134;-77
2022/01/11 12:47:22;;;;;;;13.67;4.70;;;2.40;99.90;;;;;;5099393;27;20055;-80
2022/01/11 12:50:04;;;;;;;1.60;1.50;;;2.40;99.90;;;;;;5134197;27;20047;-78
2022/01/11 12:52:31;;;;;;;1.55;1.45;;;2.50;99.90;;;;;;5099419;27;20047;-80
2022/01/11 12:54:57;;;;;;;1.50;1.40;;;2.50;99.90;;;;;;5116064;27;20082;-79
2022/01/11 12:57:26;;;;;;;0.80;0.80;;;2.50;99.90;;;;;;5134697;27;20043;-77